Latest Coastal Weather Observations for Proserpine

IDQ60701

Issued at 4:01 am EST Tuesday 28 February 2017 (issued every 10 minutes, with the page automatically refreshed every 10 minutes)

About coastal observations | Map of coastal stations | Coastal observations for QLD | Marine services | Other Formats
Station Details ID: 033247 Name: PROSERPINE AIRPORT Lat: -20.49 Lon: 148.56 Height: 19.7 m
Data from the previous 72 hours. | See also: Recent months at Proserpine
Date/Time
EST
Temp
°C
Wind Pressure Rain since
9am
mm
Weather Cloud Vis
km
Sea
Height
m
Swell
Dir  Spd
kts
Gust
kts
hPa Trend Height
m
Period
s
Dir
28/03:30am 22.1 SSW 6 7 1011.2 - 16.2 - - 10 - - - -
28/03:00am 22.3 S 7 10 1011.2 - 16.2 Rain Mostly cloudy 8 - - - -
28/02:30am 22.3 SSW 6 7 1011.3 - 15.0 - Partly cloudy 10 - - - -
28/02:00am 22.3 S 7 9 1011.8 - 15.0 - Partly cloudy 10 - - - -
28/01:30am 21.8 SSW 5 7 1012.3 - 15.0 - Partly cloudy 10 - - - -
28/01:00am 21.5 SSW 4 6 1012.5 - 15.0 - Partly cloudy 10 - - - -
28/12:30am 21.2 SSW 5 6 1012.8 - 15.0 - Partly cloudy 10 - - - -
28/12:11am 21.6 SSW 5 7 1012.9 - 15.0 - Partly cloudy 10 - - - -
28/12:09am 21.6 SSW 6 7 1012.9 - 15.0 - Partly cloudy 10 - - - -
28/12:00am 22.1 SSE 6 11 1013.0 - 15.0 Rain Cloudy 7 - - - -
 
Date/Time
EST
Temp
°C
Wind Pressure Rain since
9am
mm
Weather Cloud Vis
km
Sea
Height
m
Swell
Dir  Spd
kts
Gust
kts
hPa Trend Height
m
Period
s
Dir
27/11:47pm 21.3 ESE 12 24 1013.5 - 11.8 - Partly cloudy 0.7 - - - -
27/11:38pm 21.9 S 10 26 1013.5 - 2.8 - Partly cloudy 4 - - - -
27/11:30pm 23.4 SW 5 6 1013.0 - 0.4 - Partly cloudy 10 - - - -
27/11:00pm 23.8 S 5 7 1013.3 - 0.4 - Partly cloudy 10 - - - -
27/10:30pm 24.0 S 5 7 1013.0 - 0.4 - Partly cloudy 10 - - - -
27/10:00pm 24.6 S 8 13 1012.9 - 0.0 - Partly cloudy 10 - - - -
27/09:30pm 24.9 S 5 6 1012.7 - 0.0 - Partly cloudy 10 - - - -
27/09:00pm 24.6 SSW 1 2 1012.6 - 0.0 - Mostly clear 10 - - - -
27/08:30pm 24.9 ESE 5 7 1012.3 - 0.0 - - 10 - - - -
27/08:00pm 25.2 ESE 6 8 1012.0 - 0.0 - - 10 - - - -
27/07:30pm 25.5 ESE 7 9 1011.9 - 0.0 - - 10 - - - -
27/07:00pm 25.7 SE 6 9 1011.8 - 0.0 - - 10 - - - -
27/06:30pm 26.6 ESE 8 11 1011.5 - 0.0 - - 10 - - - -
27/06:00pm 27.1 ESE 13 17 1011.4 - 0.0 - Mostly cloudy 10 - - - -
27/05:30pm 27.5 SE 15 21 1011.0 - 0.0 - Partly cloudy 10 - - - -
27/05:00pm 28.1 ESE 13 19 1010.7 - 0.0 - Partly cloudy 10 - - - -
27/04:30pm 28.4 ESE 14 21 1010.5 - 0.0 - - 10 - - - -
27/04:00pm 29.1 ESE 15 21 1010.3 - 0.0 - - 10 - - - -
27/03:30pm 29.9 E 15 21 1010.2 - 0.0 - - 10 - - - -
27/03:00pm 30.2 ESE 15 22 1010.5 - 0.0 - - 10 - - - -
27/02:30pm 30.6 ESE 13 19 1010.8 - 0.0 - - 10 - - - -
27/02:00pm 30.6 ESE 15 20 1011.0 - 0.0 - - 10 - - - -
27/01:30pm 30.6 ESE 14 19 1011.2 - 0.0 - - 10 - - - -
27/01:00pm 31.4 ESE 15 23 1011.6 - 0.0 - - 10 - - - -
27/12:30pm 31.1 ESE 15 21 1011.9 - 0.0 - - 10 - - - -
27/12:00pm 30.3 ESE 14 21 1012.3 - 0.0 - - 10 - - - -
27/11:30am 29.5 SE 16 21 1012.7 - 0.0 - Partly cloudy 10 - - - -
27/11:00am 30.7 ESE 14 19 1012.8 - 0.0 - - 10 - - - -
27/10:30am 29.9 SE 14 19 1012.8 - 0.0 - - 10 - - - -
27/10:00am 29.7 SE 12 17 1013.1 - 0.0 - Partly cloudy 10 - - - -
27/09:30am 29.7 SE 13 17 1013.0 - 0.0 - - 10 - - - -
27/09:00am 29.0 SE 13 17 1012.9 - 0.0 - - 10 - - - -
27/08:30am 28.2 SSE 9 13 1012.8 - 0.0 - - 10 - - - -
27/08:00am 26.8 SSE 11 14 1012.6 - 0.0 - - 10 - - - -
27/07:30am 26.0 SSE 7 9 1012.4 - 0.0 - - 10 - - - -
27/07:00am 24.3 S 6 10 1012.3 - 0.0 - - 10 - - - -
27/06:30am 22.3 SSW 5 7 1012.0 - 0.0 - - 10 - - - -
27/06:00am 22.9 S 5 9 1011.9 - 0.0 - - 10 - - - -
27/05:30am 22.8 S 6 8 1011.6 - 0.0 - - 10 - - - -
27/05:00am 23.1 S 7 8 1011.5 - 0.0 - - 10 - - - -
27/04:30am 23.3 S 9 11 1011.2 - 0.0 - - 10 - - - -
27/04:00am 23.0 S 7 9 1011.1 - 0.0 - - 10 - - - -
27/03:30am 22.5 S 6 7 1011.1 - 0.0 - - 10 - - - -
27/03:00am 22.9 S 7 9 1011.3 - 0.0 - Mostly clear 10 - - - -
27/02:30am 22.1 SSW 6 7 1011.5 - 0.0 - Partly cloudy 10 - - - -
27/02:00am 22.3 SSW 5 6 1011.7 - 0.0 - - 10 - - - -
27/01:30am 23.2 S 7 9 1012.1 - 0.0 - - 10 - - - -
27/01:00am 23.7 S 7 9 1012.3 - 0.0 - Partly cloudy 10 - - - -
27/12:30am 22.9 S 5 7 1012.3 - 0.0 - Partly cloudy 10 - - - -
27/12:00am 22.7 SSW 6 8 1012.3 - 0.0 - Partly cloudy 10 - - - -
 
Date/Time
EST
Temp
°C
Wind Pressure Rain since
9am
mm
Weather Cloud Vis
km
Sea
Height
m
Swell
Dir  Spd
kts
Gust
kts
hPa Trend Height
m
Period
s
Dir
26/11:30pm 22.0 SSW 5 6 1012.1 - 0.0 - - 10 - - - -
26/11:00pm 22.6 SSW 3 4 1012.3 - 0.0 - - 10 - - - -
26/10:30pm 23.5 S 5 6 1012.5 - 0.0 - Partly cloudy 10 - - - -
26/10:00pm 24.0 S 6 8 1012.5 - 0.0 - - 10 - - - -
26/09:30pm 23.4 S 4 7 1012.4 - 0.0 - - 10 - - - -
26/09:00pm 23.8 SSW 5 6 1012.4 - 0.0 - Mostly clear 10 - - - -
26/08:30pm 24.4 S 5 6 1012.0 - 0.0 - Partly cloudy 10 - - - -
26/08:00pm 24.6 SE 4 6 1011.7 - 0.0 - Partly cloudy 10 - - - -
26/07:30pm 25.0 SSE 6 7 1011.1 - 0.0 - - 10 - - - -
26/07:00pm 25.1 ESE 6 7 1010.7 - 0.0 - - 10 - - - -
26/06:30pm 26.5 ESE 8 11 1010.4 - 0.0 - - 10 - - - -
26/06:00pm 27.6 ESE 11 18 1010.1 - 0.0 - - 10 - - - -
26/05:30pm 28.3 ESE 11 17 1009.9 - 0.0 - - 10 - - - -
26/05:00pm 28.8 ESE 12 18 1009.8 - 0.0 - - 10 - - - -
26/04:30pm 29.1 ESE 13 19 1009.7 - 0.0 - - 10 - - - -
26/04:00pm 29.8 ESE 13 19 1009.8 - 0.0 - - 10 - - - -
26/03:30pm 29.8 ESE 15 20 1009.8 - 0.0 - - 10 - - - -
26/03:00pm 30.0 ESE 15 20 1009.8 - 0.0 - - 10 - - - -
26/02:30pm 30.6 ESE 15 22 1010.1 - 0.0 - - 10 - - - -
26/02:00pm 30.8 ESE 14 20 1010.2 - 0.0 - - 10 - - - -
26/01:30pm 30.8 ESE 15 21 1010.4 - 0.0 - - 10 - - - -
26/01:00pm 30.4 ESE 15 21 1010.9 - 0.0 - - 10 - - - -
26/12:30pm 30.1 ESE 15 22 1011.1 - 0.0 - - 10 - - - -
26/12:00pm 30.7 ESE 16 21 1011.4 - 0.0 - Mostly clear 10 - - - -
26/11:30am 30.3 SE 17 25 1011.6 - 0.0 - - 10 - - - -
26/11:26am 30.6 SE 15 25 1011.6 - 0.0 - - 10 - - - -
26/11:00am 30.0 ESE 16 21 1011.9 - 0.0 - Partly cloudy 10 - - - -
26/10:30am 27.8 SE 14 19 1012.2 - 0.0 - Partly cloudy 10 - - - -
26/10:00am 30.1 ESE 13 23 1012.2 - 0.0 - Partly cloudy 10 - - - -
26/09:30am 29.9 SE 12 18 1012.1 - 0.0 - Partly cloudy 10 - - - -
26/09:00am 29.1 SSE 9 12 1012.1 - 0.0 - Mostly clear 10 - - - -
26/08:30am 28.1 SSE 9 13 1012.0 - 0.0 - Partly cloudy 10 - - - -
26/08:00am 26.4 SSE 8 13 1011.8 - 0.0 - Partly cloudy 10 - - - -
26/07:30am 25.2 S 7 9 1011.7 - 0.0 - Partly cloudy 10 - - - -
26/07:00am 24.7 SSE 7 9 1011.2 - 0.0 - - 10 - - - -
26/06:30am 24.1 SSE 8 12 1010.7 - 0.0 - Partly cloudy 10 - - - -
26/06:00am 23.6 SSE 7 9 1010.5 - 0.0 - Mostly clear 10 - - - -
26/05:30am 23.1 SSE 4 7 1010.1 - 0.0 - - 10 - - - -
26/05:00am 23.3 SSE 5 8 1009.9 - 0.0 - - 10 - - - -
26/04:30am 23.8 SSE 8 11 1009.8 - 0.0 - Partly cloudy 10 - - - -
26/04:00am 23.7 SSE 7 10 1009.7 - 0.0 - - 10 - - - -
26/03:30am 23.8 S 9 11 1009.8 - 0.0 - - 10 - - - -
26/03:00am 23.3 S 6 7 1009.9 - 0.0 - Partly cloudy 10 - - - -
26/02:30am 23.5 S 6 8 1010.1 - 0.0 - Partly cloudy 10 - - - -
26/02:00am 23.8 S 7 9 1010.2 - 0.0 - Partly cloudy 10 - - - -
26/01:30am 23.9 S 7 9 1010.4 - 0.0 - - 10 - - - -
26/01:00am 24.0 SSE 9 11 1010.7 - 0.0 - Partly cloudy 10 - - - -
26/12:30am 23.6 S 4 5 1011.1 - 0.0 - Partly cloudy 10 - - - -
26/12:00am 23.7 S 5 6 1011.3 - 0.0 - - 10 - - - -
 
Date/Time
EST
Temp
°C
Wind Pressure Rain since
9am
mm
Weather Cloud Vis
km
Sea
Height
m
Swell
Dir  Spd
kts
Gust
kts
hPa Trend Height
m
Period
s
Dir
25/11:30pm 24.1 S 6 9 1011.6 - 0.0 - Partly cloudy 10 - - - -
25/11:00pm 24.3 SSE 6 9 1011.7 - 0.0 - Partly cloudy 10 - - - -
25/10:30pm 24.1 SSW 5 7 1011.5 - 0.0 - Partly cloudy 10 - - - -
25/10:00pm 24.1 SSW 5 6 1011.6 - 0.0 - Partly cloudy 10 - - - -
25/09:30pm 25.2 S 4 6 1011.7 - 0.0 - Partly cloudy 10 - - - -
25/09:00pm 25.5 SSE 6 9 1011.5 - 0.0 - Mostly cloudy 10 - - - -
25/08:30pm 25.7 SSE 6 8 1011.4 - 0.0 - Partly cloudy 10 - - - -
25/08:00pm 25.7 ESE 6 9 1011.4 - 0.0 - Partly cloudy 10 - - - -
25/07:30pm 25.9 ESE 6 8 1011.2 - 0.0 - Partly cloudy 10 - - - -
25/07:00pm 26.2 ESE 7 10 1010.9 - 0.0 - - 10 - - - -
25/06:30pm 26.7 ESE 9 11 1010.7 - 0.0 - - 10 - - - -
25/06:00pm 27.3 ESE 9 13 1010.6 - 0.0 - - 10 - - - -
25/05:30pm 28.4 ESE 14 20 1010.3 - 0.0 - - 10 - - - -
25/05:00pm 28.8 ESE 15 21 1010.1 - 0.0 - - 10 - - - -
25/04:30pm 29.0 ESE 14 19 1009.8 - 0.0 - - 10 - - - -
25/04:00pm 29.4 ESE 16 23 1009.7 - 0.0 - - 10 - - - -
25/03:30pm 29.7 ESE 15 23 1009.7 - 0.0 - - 10 - - - -
25/03:00pm 30.2 ESE 14 21 1009.8 - 0.0 - - 10 - - - -
25/02:30pm 30.0 E 15 21 1010.0 - 0.0 - - 10 - - - -
25/02:00pm 30.6 ESE 15 23 1010.3 - 0.0 - - 10 - - - -
25/01:30pm 30.2 ESE 15 21 1010.9 - 0.0 - - 10 - - - -
25/01:00pm 30.4 ESE 12 17 1011.2 - 0.0 - Partly cloudy 10 - - - -
25/12:30pm 30.2 ESE 15 20 1011.7 - 0.0 - Partly cloudy 10 - - - -
25/12:00pm 30.7 ESE 13 19 1012.0 - 0.0 - Mostly clear 10 - - - -
25/11:30am 30.8 ESE 13 18 1012.5 - 0.0 - Partly cloudy 10 - - - -
25/11:00am 30.1 ESE 13 17 1012.7 - 0.0 - Partly cloudy 10 - - - -
25/10:30am 30.2 ESE 10 15 1012.9 - 0.0 - - 10 - - - -
25/10:00am 29.4 ESE 11 18 1013.0 - 0.0 - Partly cloudy 10 - - - -
25/09:30am 30.1 SE 10 15 1013.1 - 0.0 - Partly cloudy 10 - - - -
25/09:00am 28.4 ESE 9 14 1013.1 - 9.4 - Partly cloudy 10 - - - -
25/08:30am 27.4 ESE 4 6 1013.1 - 9.4 - Partly cloudy 10 - - - -
25/08:00am 26.8 S 7 9 1013.0 - 9.4 - - 10 - - - -
25/07:30am 26.0 S 5 7 1012.9 - 9.4 - - 10 - - - -
25/07:00am 24.8 SSW 4 4 1012.7 - 9.4 - - 10 - - - -
25/06:30am 23.9 SE 4 6 1012.3 - 9.4 - Partly cloudy 10 - - - -
25/06:00am 23.6 S 2 4 1012.0 - 9.4 - Mostly clear 10 - - - -
25/05:30am 23.8 SW 5 7 1011.8 - 9.4 - Partly cloudy 10 - - - -
25/05:00am 24.1 SE 1 3 1011.4 - 9.4 - Partly cloudy 10 - - - -
25/04:30am 24.0 E 2 5 1011.6 - 9.4 - Partly cloudy 10 - - - -

Other Formats:

Comma delimited format used in spreadsheet applications
http://www.bom.gov.au/fwo/IDQ60701/IDQ60701.94365.axf

JavaScript Object Notation format (JSON) in row-major order
http://www.bom.gov.au/fwo/IDQ60701/IDQ60701.94365.json